Algosea — CFN4229 — position and weather

sailwx.info

Track history (hours):
 
Tides and Currents Weather Stations Pressure Air Temp Water Temp Dewpoint Dewpoint Depression Visibility Wind Speed Wind Dir Waves Ship Positions

Algosea

Last reported at 2017-Jul-12 05:54 UTC. Time now 2017-Jul-21 08:44 UTC.
Position N 45°12' W 074°18'.
Warning: this ship's position is 9 days out of date.

Length 144 m; draft 7.1 m.

Type: Ship (hazmat cat A). MMSI: 316006868.

Date/timePositionNaut miles runAvg speedWind from/ knotsBaromVisibWave heightAir tempDewpointWater temp
2017-Jul-12 05:54N 45°12' W 074°18'511.1
2017-Jul-12 05:30N 45°14' W 074°12'610.1
2017-Jul-12 04:53N 45°13' W 074°03'4 9.5
2017-Jul-12 04:30N 45°15' W 073°59'4 7.3
2017-Jul-12 04:00N 45°18' W 073°56'1 1.0
2017-Jul-12 03:30N 45°18' W 073°56'1 1.5
2017-Jul-12 03:00N 45°19' W 073°55'1 1.8
2017-Jul-12 02:30N 45°20' W 073°55'1 2.2
2017-Jul-12 02:00N 45°20' W 073°53'2 3.9
2017-Jul-12 01:30N 45°21' W 073°51'5 9.4
2017-Jul-12 01:00N 45°24' W 073°46'4 7.8
2017-Jul-12 00:30N 45°25' W 073°40'3 6.1
2017-Jul-12 00:00N 45°24' W 073°36'1 2.5
2017-Jul-11 23:30N 45°24' W 073°34'0 0.4
2017-Jul-11 23:01N 45°24' W 073°34'2 4.0
2017-Jul-11 22:30N 45°25' W 073°31'4 7.1
2017-Jul-11 21:58N 45°29' W 073°31'1 1.8
2017-Jul-11 21:13N 45°30' W 073°31'  
2017-Jul-09 07:48N 46°01' W 073°10'  
2017-Jul-05 07:01N 46°01' W 073°10'4 7.5
2017-Jul-05 06:30N 45°57' W 073°13'1113.6
2017-Jul-05 05:39N 45°47' W 073°21'214.0
2017-Jul-05 05:30N 45°46' W 073°23'714.0
2017-Jul-05 05:00N 45°40' W 073°28'7 0.2
2017-Jul-03 07:14N 45°33' W 073°31'2 6.2
2017-Jul-03 06:58N 45°31' W 073°32'2 2.1
2017-Jul-03 06:12N 45°30' W 073°31'0 1.8
2017-Jul-03 06:00N 45°29' W 073°31'2 4.8
2017-Jul-03 05:30N 45°27' W 073°30'3 6.1
2017-Jul-03 05:00N 45°24' W 073°33'1 1.7
2017-Jul-03 04:31N 45°24' W 073°34'1 2.0
2017-Jul-03 04:00N 45°24' W 073°35'2 4.4
2017-Jul-03 03:30N 45°24' W 073°39'3 6.3
2017-Jul-03 03:00N 45°25' W 073°43'611.3
2017-Jul-03 02:31N 45°22' W 073°50'5 9.0
2017-Jul-03 02:00N 45°19' W 073°55'0 0.6
2017-Jul-03 01:30N 45°19' W 073°55'1 1.2
2017-Jul-03 01:01N 45°18' W 073°56'1 1.8
2017-Jul-03 00:30N 45°17' W 073°56'3 7.0
2017-Jul-03 00:00N 45°15' W 073°59'610.8
2017-Jul-02 23:29N 45°14' W 074°07'611.5
2017-Jul-02 22:59N 45°13' W 074°15'  
Track history (hours):
 
Tides and Currents Weather Stations Pressure Air Temp Water Temp Dewpoint Dewpoint Depression Visibility Wind Speed Wind Dir Waves Ship Positions

Algosea

Last reported at 2017-Jul-12 05:54 UTC. Time now 2017-Jul-21 08:44 UTC.
Position N 45°12' W 074°18'.
Warning: this ship's position is 9 days out of date.

Length 144 m; draft 7.1 m.

Type: Ship (hazmat cat A). MMSI: 316006868.

Date/timePositionNaut miles runAvg speedWind from/ knotsBaromVisibWave heightAir tempDewpointWater temp
2017-Jul-12 05:54N 45°12' W 074°18'511.1
2017-Jul-12 05:30N 45°14' W 074°12'610.1
2017-Jul-12 04:53N 45°13' W 074°03'4 9.5
2017-Jul-12 04:30N 45°15' W 073°59'4 7.3
2017-Jul-12 04:00N 45°18' W 073°56'1 1.0
2017-Jul-12 03:30N 45°18' W 073°56'1 1.5
2017-Jul-12 03:00N 45°19' W 073°55'1 1.8
2017-Jul-12 02:30N 45°20' W 073°55'1 2.2
2017-Jul-12 02:00N 45°20' W 073°53'2 3.9
2017-Jul-12 01:30N 45°21' W 073°51'5 9.4
2017-Jul-12 01:00N 45°24' W 073°46'4 7.8
2017-Jul-12 00:30N 45°25' W 073°40'3 6.1
2017-Jul-12 00:00N 45°24' W 073°36'1 2.5
2017-Jul-11 23:30N 45°24' W 073°34'0 0.4
2017-Jul-11 23:01N 45°24' W 073°34'2 4.0
2017-Jul-11 22:30N 45°25' W 073°31'4 7.1
2017-Jul-11 21:58N 45°29' W 073°31'1 1.8
2017-Jul-11 21:13N 45°30' W 073°31'  
2017-Jul-09 07:48N 46°01' W 073°10'  
2017-Jul-05 07:01N 46°01' W 073°10'4 7.5
2017-Jul-05 06:30N 45°57' W 073°13'1113.6
2017-Jul-05 05:39N 45°47' W 073°21'214.0
2017-Jul-05 05:30N 45°46' W 073°23'714.0
2017-Jul-05 05:00N 45°40' W 073°28'7 0.2
2017-Jul-03 07:14N 45°33' W 073°31'2 6.2
2017-Jul-03 06:58N 45°31' W 073°32'2 2.1
2017-Jul-03 06:12N 45°30' W 073°31'0 1.8
2017-Jul-03 06:00N 45°29' W 073°31'2 4.8
2017-Jul-03 05:30N 45°27' W 073°30'3 6.1
2017-Jul-03 05:00N 45°24' W 073°33'1 1.7
2017-Jul-03 04:31N 45°24' W 073°34'1 2.0
2017-Jul-03 04:00N 45°24' W 073°35'2 4.4
2017-Jul-03 03:30N 45°24' W 073°39'3 6.3
2017-Jul-03 03:00N 45°25' W 073°43'611.3
2017-Jul-03 02:31N 45°22' W 073°50'5 9.0
2017-Jul-03 02:00N 45°19' W 073°55'0 0.6
2017-Jul-03 01:30N 45°19' W 073°55'1 1.2
2017-Jul-03 01:01N 45°18' W 073°56'1 1.8
2017-Jul-03 00:30N 45°17' W 073°56'3 7.0
2017-Jul-03 00:00N 45°15' W 073°59'610.8
2017-Jul-02 23:29N 45°14' W 074°07'611.5
2017-Jul-02 22:59N 45°13' W 074°15'  

Dump ship's entire track history